Time;durP1;ratioP1;P1;durP2;ratioP2;P2;SDS_P1;SDS_P2;PMS_P1;PMS_P2;Temp;Humidity;BMP_temperature;BMP_pressure;BME280_temperature;BME280_humidity;BME280_pressure;Samples;Min_cycle;Max_cycle;Signal;HPM_P1;HPM_P2
2022/01/04 00:00:47;;;;;;;23.52;4.50;;;7.20;99.90;;;;;;5088305;28;20056;-66
2022/01/04 00:03:13;;;;;;;21.17;4.25;;;7.20;99.90;;;;;;5078801;28;20064;-66
2022/01/04 00:05:39;;;;;;;22.00;4.03;;;7.20;99.90;;;;;;5074733;28;20059;-66
2022/01/04 00:08:08;;;;;;;20.45;3.90;;;7.20;99.90;;;;;;5068766;28;20048;-66
2022/01/04 00:10:37;;;;;;;17.83;4.07;;;7.20;99.90;;;;;;5070467;28;20045;-66
2022/01/04 00:15:47;;;;;;;11.07;3.25;;;7.20;99.90;;;;;;5068649;28;20095;-66
2022/01/04 00:18:13;;;;;;;14.45;3.08;;;7.20;99.90;;;;;;5069211;28;20076;-65
2022/01/04 00:20:39;;;;;;;12.93;3.85;;;7.10;99.90;;;;;;5069447;28;20048;-66
2022/01/04 00:23:04;;;;;;;15.02;3.25;;;7.20;99.90;;;;;;5069165;28;20048;-66
2022/01/04 00:25:30;;;;;;;16.55;3.35;;;7.10;99.90;;;;;;5091849;28;20079;-66
2022/01/04 00:27:58;;;;;;;18.77;3.67;;;7.20;99.90;;;;;;5105196;28;20046;-66
2022/01/04 00:30:28;;;;;;;13.70;3.33;;;7.40;99.90;;;;;;5100835;28;20537;-66
2022/01/04 00:32:54;;;;;;;20.88;3.53;;;7.20;99.90;;;;;;5103920;28;20040;-66
2022/01/04 00:35:21;;;;;;;11.30;3.10;;;7.20;99.90;;;;;;5095475;28;20056;-66
2022/01/04 00:37:46;;;;;;;16.50;4.05;;;7.20;99.90;;;;;;5109489;28;20089;-66
2022/01/04 00:40:12;;;;;;;21.20;3.88;;;7.20;99.90;;;;;;5111538;28;20503;-66
2022/01/04 00:42:38;;;;;;;19.67;3.33;;;7.30;99.90;;;;;;5112719;28;20044;-66
2022/01/04 00:45:04;;;;;;;23.42;4.68;;;7.30;99.90;;;;;;5113736;28;20040;-66
2022/01/04 00:47:42;;;;;;;29.00;4.15;;;7.30;99.90;;;;;;5113238;28;20044;-66
2022/01/04 00:50:08;;;;;;;16.30;2.92;;;7.30;99.90;;;;;;5112926;28;20043;-66
2022/01/04 00:52:33;;;;;;;26.95;4.28;;;7.30;99.90;;;;;;5113499;28;20047;-66
2022/01/04 00:54:59;;;;;;;23.92;3.97;;;7.30;99.90;;;;;;5113453;28;20051;-66
2022/01/04 00:57:25;;;;;;;18.95;3.35;;;7.30;99.90;;;;;;5109150;28;20045;-65
2022/01/04 00:59:50;;;;;;;23.92;5.00;;;7.20;99.90;;;;;;5104169;28;20052;-66
2022/01/04 01:02:16;;;;;;;17.63;3.35;;;7.20;99.90;;;;;;5100068;28;20067;-66
2022/01/04 01:04:41;;;;;;;12.65;3.33;;;7.20;99.90;;;;;;5102129;28;20101;-66
2022/01/04 01:07:07;;;;;;;14.02;3.53;;;7.30;99.90;;;;;;5113381;28;20055;-66
2022/01/04 01:09:38;;;;;;;16.25;4.32;;;7.30;99.90;;;;;;5112002;28;20056;-66
2022/01/04 01:12:05;;;;;;;19.83;4.65;;;7.30;99.90;;;;;;5130702;27;20039;-66
2022/01/04 01:14:30;;;;;;;20.45;4.40;;;7.30;99.90;;;;;;5114196;28;20048;-66
2022/01/04 01:16:56;;;;;;;19.58;4.95;;;7.40;99.90;;;;;;5112522;28;20118;-66
2022/01/04 01:19:21;;;;;;;18.45;4.38;;;7.40;99.90;;;;;;5113020;28;20104;-66
2022/01/04 01:21:47;;;;;;;18.92;4.70;;;7.30;99.90;;;;;;5113789;28;20117;-66
2022/01/04 01:24:12;;;;;;;15.65;4.28;;;7.40;99.90;;;;;;5113391;28;20043;-66
2022/01/04 01:26:38;;;;;;;17.75;4.90;;;7.30;99.90;;;;;;5128633;27;20050;-66
2022/01/04 01:29:04;;;;;;;26.42;5.50;;;7.30;99.90;;;;;;5112732;28;20036;-66
2022/01/04 01:31:30;;;;;;;20.77;4.82;;;7.30;99.90;;;;;;5113085;28;20039;-65
2022/01/04 01:33:56;;;;;;;31.35;6.80;;;7.30;99.90;;;;;;5105211;28;20091;-66
2022/01/04 01:36:21;;;;;;;20.13;5.07;;;7.40;99.90;;;;;;5105508;28;20087;-66
2022/01/04 01:38:47;;;;;;;26.20;5.35;;;7.40;99.90;;;;;;5108641;28;20421;-66
2022/01/04 01:41:13;;;;;;;18.60;4.28;;;7.40;99.90;;;;;;5114037;28;20549;-66
2022/01/04 01:43:38;;;;;;;24.45;4.93;;;7.30;99.90;;;;;;5112495;28;20051;-66
2022/01/04 01:46:04;;;;;;;18.10;4.57;;;7.40;99.90;;;;;;5113228;28;20044;-66
2022/01/04 01:48:29;;;;;;;29.30;5.20;;;7.50;99.90;;;;;;5112178;28;20059;-66
2022/01/04 01:50:55;;;;;;;27.35;4.93;;;7.40;99.90;;;;;;5111776;28;20072;-66
2022/01/04 01:53:22;;;;;;;20.20;5.32;;;7.50;99.90;;;;;;5111433;28;20046;-66
2022/01/04 01:55:48;;;;;;;22.40;6.68;;;7.40;99.90;;;;;;5112264;28;20153;-66
2022/01/04 01:58:14;;;;;;;18.60;4.80;;;7.40;99.90;;;;;;5112305;28;20039;-66
2022/01/04 02:00:40;;;;;;;25.17;5.03;;;7.30;99.90;;;;;;5112584;28;20410;-66
2022/01/04 02:03:06;;;;;;;21.50;4.47;;;7.40;99.90;;;;;;5112086;28;20046;-66
2022/01/04 02:05:32;;;;;;;23.90;5.60;;;7.30;99.90;;;;;;5111657;28;20056;-66
2022/01/04 02:07:59;;;;;;;19.50;4.90;;;7.30;99.90;;;;;;5111248;28;20035;-66
2022/01/04 02:10:24;;;;;;;19.80;5.57;;;7.30;99.90;;;;;;5107938;28;20097;-66
2022/01/04 02:12:50;;;;;;;20.92;5.13;;;7.30;99.90;;;;;;5103974;28;20048;-66
2022/01/04 02:15:21;;;;;;;14.85;3.88;;;7.30;99.90;;;;;;5091914;28;20151;-66
2022/01/04 02:17:47;;;;;;;14.07;4.22;;;7.40;99.90;;;;;;5110788;28;20035;-66
2022/01/04 02:20:14;;;;;;;29.60;5.82;;;7.40;99.90;;;;;;5112391;28;20498;-66
2022/01/04 02:22:40;;;;;;;24.33;4.78;;;7.40;99.90;;;;;;5111472;28;20047;-66
2022/01/04 02:25:06;;;;;;;26.08;5.40;;;7.40;99.90;;;;;;5111741;28;20043;-66
2022/01/04 02:27:34;;;;;;;18.88;4.63;;;7.40;99.90;;;;;;5110630;28;20073;-66
2022/01/04 02:30:00;;;;;;;20.58;5.35;;;7.50;99.90;;;;;;5111621;28;20086;-66
2022/01/04 02:32:26;;;;;;;21.40;4.72;;;7.40;99.90;;;;;;5111548;28;20077;-66
2022/01/04 02:34:52;;;;;;;13.45;4.47;;;7.40;99.90;;;;;;5111008;28;20055;-66
2022/01/04 02:37:26;;;;;;;21.88;5.75;;;7.50;99.90;;;;;;5112854;27;20039;-66
2022/01/04 02:39:53;;;;;;;36.20;6.13;;;7.50;99.90;;;;;;5128422;27;20307;-66
2022/01/04 02:42:20;;;;;;;22.15;5.20;;;7.50;99.90;;;;;;5110980;28;20059;-66
2022/01/04 02:44:46;;;;;;;22.90;5.97;;;7.40;99.90;;;;;;5111003;28;20055;-66
2022/01/04 02:47:13;;;;;;;22.70;5.97;;;7.50;99.90;;;;;;5112813;28;20075;-66
2022/01/04 02:49:39;;;;;;;18.98;5.95;;;7.50;99.90;;;;;;5110262;28;20513;-66
2022/01/04 02:52:08;;;;;;;21.40;5.28;;;7.50;99.90;;;;;;5111499;28;20055;-66
2022/01/04 02:54:33;;;;;;;20.42;7.30;;;7.60;99.90;;;;;;5112227;27;20470;-66
2022/01/04 02:56:59;;;;;;;22.15;5.55;;;7.50;99.90;;;;;;5110690;28;20038;-66
2022/01/04 02:59:25;;;;;;;24.20;6.47;;;7.60;99.90;;;;;;5111465;28;20143;-66
2022/01/04 03:01:51;;;;;;;33.10;7.18;;;7.60;99.90;;;;;;5110601;28;20482;-66
2022/01/04 03:04:16;;;;;;;23.67;5.53;;;7.60;99.90;;;;;;5109938;28;20040;-66
2022/01/04 03:06:42;;;;;;;26.77;7.10;;;7.60;99.90;;;;;;5112133;28;20051;-66
2022/01/04 03:09:08;;;;;;;19.92;5.82;;;7.60;99.90;;;;;;5110158;28;20394;-66
2022/01/04 03:11:34;;;;;;;17.23;6.40;;;7.70;99.90;;;;;;5111917;28;20070;-66
2022/01/04 03:14:00;;;;;;;14.95;5.80;;;7.60;99.90;;;;;;5110924;28;20047;-66
2022/01/04 03:16:26;;;;;;;17.52;5.07;;;7.60;99.90;;;;;;5111501;28;20031;-66
2022/01/04 03:19:09;;;;;;;25.50;6.25;;;7.70;99.90;;;;;;5110432;28;20063;-66
2022/01/04 03:21:42;;;;;;;24.00;6.32;;;7.70;99.90;;;;;;5110322;28;20421;-66
2022/01/04 03:24:10;;;;;;;31.80;7.13;;;7.70;99.90;;;;;;5109881;28;20036;-66
2022/01/04 03:26:36;;;;;;;39.40;6.28;;;7.70;99.90;;;;;;5110212;28;20055;-66
2022/01/04 03:29:02;;;;;;;28.25;6.00;;;7.60;99.90;;;;;;5110842;28;20448;-66
2022/01/04 03:31:29;;;;;;;19.73;5.63;;;7.60;99.90;;;;;;5109856;28;20050;-66
2022/01/04 03:33:55;;;;;;;30.95;5.97;;;7.60;99.90;;;;;;5110465;28;20036;-66
2022/01/04 03:36:20;;;;;;;30.17;7.07;;;7.60;99.90;;;;;;5110496;28;20043;-66
2022/01/04 03:38:48;;;;;;;20.67;6.07;;;7.60;99.90;;;;;;5109527;28;20133;-65
2022/01/04 03:41:13;;;;;;;19.40;4.47;;;7.60;99.90;;;;;;5111521;28;20043;-66
2022/01/04 03:43:42;;;;;;;16.42;4.70;;;7.60;99.90;;;;;;5109674;28;20050;-66
2022/01/04 03:46:08;;;;;;;31.20;5.70;;;7.60;99.90;;;;;;5109322;28;20100;-66
2022/01/04 03:48:35;;;;;;;18.98;6.40;;;7.70;99.90;;;;;;5127312;27;20428;-66
2022/01/04 03:51:01;;;;;;;27.52;5.97;;;7.50;99.90;;;;;;5110092;28;20421;-66
2022/01/04 03:53:27;;;;;;;22.85;5.40;;;7.60;99.90;;;;;;5109430;28;20035;-66
2022/01/04 03:55:52;;;;;;;16.73;5.93;;;7.50;99.90;;;;;;5111206;28;20119;-66
2022/01/04 03:58:18;;;;;;;17.15;5.20;;;7.60;99.90;;;;;;5109124;28;20039;-66
2022/01/04 04:00:44;;;;;;;33.92;6.13;;;7.60;99.90;;;;;;5109823;28;20138;-66
2022/01/04 04:03:09;;;;;;;26.05;6.05;;;7.50;99.90;;;;;;5110355;28;20044;-66
2022/01/04 04:05:35;;;;;;;28.20;5.45;;;7.50;99.90;;;;;;5108846;28;20051;-66
2022/01/04 04:08:00;;;;;;;24.52;5.05;;;7.60;99.90;;;;;;5109884;28;20036;-66
2022/01/04 04:10:26;;;;;;;28.45;5.90;;;7.50;99.90;;;;;;5110027;28;20048;-66
2022/01/04 04:12:51;;;;;;;20.65;5.78;;;7.60;99.90;;;;;;5108823;28;20051;-66
2022/01/04 04:15:17;;;;;;;30.10;6.43;;;7.60;99.90;;;;;;5109855;28;20130;-66
2022/01/04 04:17:46;;;;;;;40.70;6.22;;;7.60;99.90;;;;;;5111096;28;20503;-66
2022/01/04 04:20:12;;;;;;;19.00;5.57;;;7.60;99.90;;;;;;5108895;28;20083;-66
2022/01/04 04:22:38;;;;;;;35.05;6.80;;;7.60;99.90;;;;;;5109512;28;20123;-66
2022/01/04 04:25:04;;;;;;;27.83;6.43;;;7.60;99.90;;;;;;5109759;28;20047;-66
2022/01/04 04:27:29;;;;;;;17.17;5.05;;;7.60;99.90;;;;;;5108815;28;20066;-66
2022/01/04 04:29:55;;;;;;;25.73;6.35;;;7.60;99.90;;;;;;5109823;28;20494;-66
2022/01/04 04:32:21;;;;;;;22.67;5.32;;;7.60;99.90;;;;;;5111149;28;20126;-66
2022/01/04 04:34:47;;;;;;;21.85;5.25;;;7.60;99.90;;;;;;5110175;28;20047;-65
2022/01/04 04:37:12;;;;;;;15.55;3.92;;;7.60;99.90;;;;;;5109715;28;20055;-66
2022/01/04 04:39:38;;;;;;;16.00;4.65;;;7.60;99.90;;;;;;5109725;28;20044;-66
2022/01/04 04:42:04;;;;;;;17.65;4.68;;;7.50;99.90;;;;;;5110230;28;20478;-66
2022/01/04 04:44:30;;;;;;;26.27;5.00;;;7.50;99.90;;;;;;5110854;28;20105;-66
2022/01/04 04:46:56;;;;;;;19.30;5.68;;;7.50;99.90;;;;;;5093687;28;20111;-66
2022/01/04 04:49:21;;;;;;;22.45;5.40;;;7.50;99.90;;;;;;5102405;28;20048;-66
2022/01/04 04:51:47;;;;;;;21.63;4.80;;;7.50;99.90;;;;;;5091373;28;20387;-66
2022/01/04 04:54:13;;;;;;;18.50;4.70;;;7.50;99.90;;;;;;5090588;28;20051;-66
2022/01/04 04:56:39;;;;;;;20.77;5.00;;;7.50;99.90;;;;;;5102832;28;20473;-66
2022/01/04 04:59:05;;;;;;;27.42;6.18;;;7.60;99.90;;;;;;5109445;28;20375;-66
2022/01/04 05:01:31;;;;;;;26.55;6.38;;;7.60;99.90;;;;;;5109915;28;20048;-65
2022/01/04 05:03:57;;;;;;;22.63;4.68;;;7.60;99.90;;;;;;5109668;28;20047;-66
2022/01/04 05:06:22;;;;;;;18.23;4.38;;;7.50;99.90;;;;;;5109677;28;20055;-66
2022/01/04 05:08:48;;;;;;;29.00;6.13;;;7.50;99.90;;;;;;5109264;28;20125;-66
2022/01/04 05:11:13;;;;;;;13.35;4.78;;;7.60;99.90;;;;;;5097849;28;20032;-66
2022/01/04 05:13:42;;;;;;;19.33;4.82;;;7.50;99.90;;;;;;5103442;28;20039;-66
2022/01/04 05:16:07;;;;;;;19.00;4.88;;;7.60;99.90;;;;;;5089184;28;20387;-66
2022/01/04 05:18:33;;;;;;;24.20;4.95;;;7.60;99.90;;;;;;5109213;28;20046;-66
2022/01/04 05:20:58;;;;;;;15.77;5.72;;;7.60;99.90;;;;;;5109020;28;20060;-66
2022/01/04 05:23:24;;;;;;;29.90;6.60;;;7.60;99.90;;;;;;5082360;28;20392;-66
2022/01/04 05:25:49;;;;;;;16.35;4.97;;;7.60;99.90;;;;;;5099563;28;20454;-66
2022/01/04 05:28:15;;;;;;;14.63;4.40;;;7.60;99.90;;;;;;5103730;28;20047;-66
2022/01/04 05:30:41;;;;;;;23.25;4.78;;;7.60;99.90;;;;;;5091672;28;20050;-66
2022/01/04 05:33:06;;;;;;;19.27;5.18;;;7.60;99.90;;;;;;5106651;28;20050;-66
2022/01/04 05:35:32;;;;;;;19.75;4.47;;;7.50;99.90;;;;;;5106307;28;20052;-66
2022/01/04 05:37:57;;;;;;;25.13;5.57;;;7.60;99.90;;;;;;5101077;28;20113;-66
2022/01/04 05:40:23;;;;;;;13.88;3.58;;;7.50;99.90;;;;;;5093030;28;20058;-66
2022/01/04 05:42:48;;;;;;;20.13;4.40;;;7.50;99.90;;;;;;5093625;28;20055;-66
2022/01/04 05:45:14;;;;;;;22.20;5.35;;;7.50;99.90;;;;;;5113073;28;20213;-66
2022/01/04 05:47:40;;;;;;;21.05;5.43;;;7.50;99.90;;;;;;5112478;28;20043;-66
2022/01/04 05:50:06;;;;;;;24.40;5.03;;;7.50;99.90;;;;;;5113825;28;20062;-66
2022/01/04 05:52:33;;;;;;;19.20;4.28;;;7.50;99.90;;;;;;5111453;28;20047;-66
2022/01/04 05:54:59;;;;;;;29.98;5.65;;;7.60;99.90;;;;;;5112301;28;20078;-66
2022/01/04 05:57:24;;;;;;;24.20;6.45;;;7.50;99.90;;;;;;5113840;28;20067;-66
2022/01/04 05:59:53;;;;;;;19.50;5.75;;;7.60;99.90;;;;;;5076492;28;20113;-66
2022/01/04 06:02:25;;;;;;;21.65;4.72;;;8.70;99.90;;;;;;5108545;28;20079;-66
2022/01/04 06:04:51;;;;;;;25.95;5.32;;;7.50;99.90;;;;;;5090729;28;20467;-66
2022/01/04 06:07:17;;;;;;;17.92;4.95;;;7.60;99.90;;;;;;5094933;28;20040;-66
2022/01/04 06:09:46;;;;;;;22.00;5.95;;;7.50;99.90;;;;;;5104593;28;20459;-66
2022/01/04 06:15:01;;;;;;;40.80;7.90;;;7.50;99.90;;;;;;5095964;28;20091;-66
2022/01/04 06:17:29;;;;;;;15.45;4.88;;;7.50;99.90;;;;;;5091832;28;20051;-66
2022/01/04 06:19:58;;;;;;;22.98;5.70;;;7.60;99.90;;;;;;5092093;28;20138;-66
2022/01/04 06:22:28;;;;;;;16.25;5.38;;;7.50;99.90;;;;;;5091407;28;20127;-66
2022/01/04 06:24:54;;;;;;;24.27;7.00;;;7.60;99.90;;;;;;5091445;28;20044;-65
2022/01/04 06:27:21;;;;;;;24.13;6.75;;;7.50;99.90;;;;;;5090741;28;20051;-66
2022/01/04 06:29:47;;;;;;;21.77;6.57;;;7.60;99.90;;;;;;5091068;28;20448;-66
2022/01/04 06:32:13;;;;;;;29.35;7.07;;;7.60;99.90;;;;;;5091471;28;20040;-66
2022/01/04 06:34:41;;;;;;;21.38;5.80;;;7.60;99.90;;;;;;5092215;28;20052;-66
2022/01/04 06:37:08;;;;;;;22.42;5.63;;;7.70;99.90;;;;;;5106069;28;20044;-66
2022/01/04 06:39:34;;;;;;;31.58;7.88;;;7.70;99.90;;;;;;5128739;27;20043;-66
2022/01/04 06:42:00;;;;;;;22.02;5.95;;;7.70;99.90;;;;;;5110691;28;20494;-66
2022/01/04 06:44:25;;;;;;;25.02;5.63;;;7.70;99.90;;;;;;5102815;28;20078;-66
2022/01/04 06:46:51;;;;;;;20.88;5.05;;;7.70;99.90;;;;;;5096797;28;20078;-66
2022/01/04 06:49:18;;;;;;;20.35;5.35;;;7.70;99.90;;;;;;5100256;28;20063;-66
2022/01/04 06:51:45;;;;;;;19.30;5.47;;;7.60;99.90;;;;;;5097762;28;20449;-66
2022/01/04 06:54:16;;;;;;;19.92;4.93;;;7.50;99.90;;;;;;5090140;28;20040;-65
2022/01/04 06:56:42;;;;;;;19.38;4.97;;;7.60;99.90;;;;;;5099014;28;20104;-65
2022/01/04 06:59:08;;;;;;;19.50;4.88;;;7.50;99.90;;;;;;5111349;28;20044;-66
2022/01/04 07:01:35;;;;;;;28.33;5.88;;;7.60;99.90;;;;;;5110210;28;20050;-66
2022/01/04 07:04:01;;;;;;;15.82;4.47;;;7.50;99.90;;;;;;5111304;28;20084;-66
2022/01/04 07:06:26;;;;;;;21.42;5.88;;;7.60;99.90;;;;;;5112527;28;20120;-65
2022/01/04 07:08:52;;;;;;;14.18;4.85;;;7.60;99.90;;;;;;5102126;28;20134;-66
2022/01/04 07:11:18;;;;;;;28.05;5.10;;;7.50;99.90;;;;;;5095853;28;20054;-66
2022/01/04 07:13:44;;;;;;;16.83;3.53;;;7.60;99.90;;;;;;5109945;28;20489;-66
2022/01/04 07:16:10;;;;;;;15.20;3.83;;;7.50;99.90;;;;;;5090193;28;20056;-65
2022/01/04 07:18:35;;;;;;;15.63;3.80;;;7.60;99.90;;;;;;5090171;28;20047;-66
2022/01/04 07:21:02;;;;;;;17.55;4.88;;;7.50;99.90;;;;;;5108394;28;20101;-66
2022/01/04 07:23:28;;;;;;;15.52;4.30;;;7.60;99.90;;;;;;5108295;28;20083;-66
2022/01/04 07:25:54;;;;;;;11.60;3.55;;;7.50;99.90;;;;;;5096882;28;20094;-66
2022/01/04 07:28:21;;;;;;;12.30;3.58;;;7.50;99.90;;;;;;5110753;28;20047;-66
2022/01/04 07:30:46;;;;;;;12.57;4.10;;;7.50;99.90;;;;;;5093258;28;20509;-66
2022/01/04 07:33:17;;;;;;;17.95;3.72;;;7.50;99.90;;;;;;5090296;28;20043;-66
2022/01/04 07:35:43;;;;;;;15.88;4.85;;;7.40;99.90;;;;;;5110102;28;20056;-66
2022/01/04 07:38:09;;;;;;;12.95;3.75;;;7.40;99.90;;;;;;5109748;28;20126;-66
2022/01/04 07:40:35;;;;;;;14.32;4.28;;;7.30;99.90;;;;;;5109983;28;20409;-66
2022/01/04 07:43:00;;;;;;;16.05;4.40;;;7.40;99.90;;;;;;5110324;28;20059;-66
2022/01/04 07:45:28;;;;;;;15.00;4.40;;;7.40;99.90;;;;;;5096299;28;20691;-66
2022/01/04 07:47:55;;;;;;;14.40;4.07;;;7.30;99.90;;;;;;5092381;28;20044;-66
2022/01/04 07:50:20;;;;;;;15.45;4.60;;;7.30;99.90;;;;;;5094682;28;20047;-66
2022/01/04 07:52:46;;;;;;;8.18;3.20;;;7.30;99.90;;;;;;5089439;28;20044;-66
2022/01/04 07:55:11;;;;;;;16.25;4.03;;;7.30;99.90;;;;;;5090092;28;20075;-66
2022/01/04 07:57:39;;;;;;;12.23;4.45;;;7.30;99.90;;;;;;5094590;28;20494;-66
2022/01/04 08:00:05;;;;;;;13.57;3.53;;;7.40;99.90;;;;;;5098221;28;20044;-66
2022/01/04 08:02:30;;;;;;;13.80;3.55;;;7.30;99.90;;;;;;5090109;28;20383;-66
2022/01/04 08:04:59;;;;;;;13.38;2.95;;;7.40;99.90;;;;;;5089393;28;20086;-66
2022/01/04 08:07:24;;;;;;;15.55;4.15;;;7.40;99.90;;;;;;5103898;28;20426;-66
2022/01/04 08:09:50;;;;;;;13.15;4.30;;;7.40;99.90;;;;;;5109781;28;20083;-66
2022/01/04 08:12:15;;;;;;;16.80;4.03;;;7.40;99.90;;;;;;5110611;28;20039;-66
2022/01/04 08:14:41;;;;;;;15.27;3.58;;;7.50;99.90;;;;;;5109781;28;20059;-65
2022/01/04 08:17:07;;;;;;;10.27;3.67;;;7.40;99.90;;;;;;5100562;28;20148;-66
2022/01/04 08:19:32;;;;;;;15.15;3.63;;;7.50;99.90;;;;;;5088597;28;20391;-65
2022/01/04 08:21:58;;;;;;;13.10;3.65;;;7.40;99.90;;;;;;5101865;28;20048;-66
2022/01/04 08:24:23;;;;;;;28.20;4.63;;;7.40;99.90;;;;;;5102251;28;20052;-66
2022/01/04 08:26:49;;;;;;;13.52;3.67;;;7.40;99.90;;;;;;5088405;28;20040;-66
2022/01/04 08:29:15;;;;;;;15.02;3.45;;;7.40;99.90;;;;;;5096251;28;20058;-66
2022/01/04 08:31:40;;;;;;;12.57;4.50;;;7.50;99.90;;;;;;5093723;28;20149;-66
2022/01/04 08:34:06;;;;;;;18.92;4.32;;;7.50;99.90;;;;;;5100327;28;20500;-66
2022/01/04 08:36:31;;;;;;;9.85;2.78;;;7.50;99.90;;;;;;5089464;28;20048;-66
2022/01/04 08:38:57;;;;;;;6.40;1.50;;;7.20;99.90;;;;;;5081046;28;20052;-66
2022/01/04 08:41:23;;;;;;;9.93;1.65;;;7.20;99.90;;;;;;5109223;28;20055;-66
2022/01/04 08:43:48;;;;;;;9.85;1.63;;;6.90;99.90;;;;;;5095324;28;20124;-66
2022/01/04 08:46:14;;;;;;;5.97;1.45;;;6.80;99.90;;;;;;5105255;28;20050;-66
2022/01/04 08:48:40;;;;;;;9.57;1.75;;;6.60;99.90;;;;;;5093595;28;20066;-67
2022/01/04 08:51:06;;;;;;;12.85;1.40;;;6.50;99.90;;;;;;5101730;28;20097;-68
2022/01/04 08:53:31;;;;;;;5.32;1.23;;;6.50;99.90;;;;;;5073031;28;20053;-67
2022/01/04 08:56:02;;;;;;;5.13;0.55;;;6.50;99.90;;;;;;5098213;28;20417;-68
2022/01/04 08:58:28;;;;;;;5.78;1.13;;;6.50;99.90;;;;;;5095286;28;20083;-68
2022/01/04 09:00:55;;;;;;;5.47;0.70;;;6.30;99.90;;;;;;5093354;28;20040;-68
2022/01/04 09:03:21;;;;;;;2.10;0.65;;;6.40;99.90;;;;;;5091780;28;20048;-70
2022/01/04 09:05:47;;;;;;;5.93;1.08;;;6.30;99.90;;;;;;5101670;28;20512;-70
2022/01/04 09:08:12;;;;;;;5.15;0.82;;;6.30;99.90;;;;;;5103878;28;20405;-69
2022/01/04 09:10:38;;;;;;;0.98;0.47;;;6.30;99.90;;;;;;5101781;28;20036;-68
2022/01/04 09:13:12;;;;;;;3.80;0.85;;;6.30;99.90;;;;;;5101927;28;20036;-66
2022/01/04 09:20:51;;;;;;;7.38;0.90;;;6.40;99.90;;;;;;5105597;28;20056;-66
2022/01/04 09:23:20;;;;;;;4.00;1.15;;;6.30;99.90;;;;;;5100217;28;20533;-66
2022/01/04 09:25:51;;;;;;;1.83;0.47;;;6.20;99.90;;;;;;5095801;28;20048;-66
2022/01/04 09:28:18;;;;;;;4.40;1.05;;;6.30;99.90;;;;;;5103584;28;20505;-66
2022/01/04 09:30:48;;;;;;;5.50;0.73;;;6.20;99.90;;;;;;5101964;28;20054;-66
2022/01/04 09:33:14;;;;;;;0.88;0.52;;;6.20;99.90;;;;;;5092162;28;20036;-66
2022/01/04 09:35:41;;;;;;;5.60;0.40;;;6.20;99.90;;;;;;5106126;28;20054;-66
2022/01/04 09:38:07;;;;;;;4.53;0.55;;;6.20;99.90;;;;;;5084193;28;20048;-66
2022/01/04 09:40:35;;;;;;;8.57;0.98;;;6.20;99.90;;;;;;5074486;28;20498;-66
2022/01/04 09:43:03;;;;;;;3.58;0.82;;;6.30;99.90;;;;;;5092103;28;20394;-65
2022/01/04 09:45:29;;;;;;;8.57;1.05;;;6.30;99.90;;;;;;5091050;28;20043;-68
2022/01/04 09:47:55;;;;;;;1.73;0.80;;;6.30;99.90;;;;;;5091367;28;20064;-69
2022/01/04 09:50:20;;;;;;;5.38;1.20;;;6.20;99.90;;;;;;5090797;28;20128;-68
2022/01/04 09:52:47;;;;;;;2.75;0.80;;;6.10;99.90;;;;;;5091937;28;20047;-68
2022/01/04 09:55:15;;;;;;;5.13;0.55;;;6.00;99.90;;;;;;5090573;28;20048;-67
2022/01/04 09:57:42;;;;;;;4.95;1.15;;;5.90;99.90;;;;;;5090677;28;20406;-67
2022/01/04 10:00:14;;;;;;;2.30;0.70;;;5.80;99.90;;;;;;5090830;28;20056;-68
2022/01/04 10:02:41;;;;;;;5.40;0.82;;;5.80;99.90;;;;;;5106518;28;20436;-67
2022/01/04 10:05:18;;;;;;;0.95;0.20;;;5.60;99.90;;;;;;5101588;28;20417;-67
2022/01/04 10:07:45;;;;;;;3.60;0.60;;;5.50;99.90;;;;;;5111350;28;20044;-67
2022/01/04 10:10:13;;;;;;;3.03;0.30;;;5.40;99.90;;;;;;5111697;28;20051;-67
2022/01/04 10:12:59;;;;;;;1.35;0.55;;;5.30;99.90;;;;;;5096718;28;20131;-67
2022/01/04 10:15:29;;;;;;;1.98;0.40;;;5.30;99.90;;;;;;5103161;27;20135;-67
2022/01/04 10:17:56;;;;;;;0.90;0.50;;;5.20;99.90;;;;;;5100399;28;20043;-67
2022/01/04 10:20:22;;;;;;;2.17;0.50;;;5.20;99.90;;;;;;5099691;28;20055;-67
2022/01/04 10:22:50;;;;;;;0.90;0.30;;;5.20;99.90;;;;;;5098112;28;20044;-67
2022/01/04 10:25:18;;;;;;;3.78;0.45;;;5.20;99.90;;;;;;5098099;28;20082;-67
2022/01/04 10:27:51;;;;;;;3.20;0.93;;;5.30;99.90;;;;;;5101833;28;20136;-68
2022/01/04 10:30:30;;;;;;;2.55;0.55;;;5.30;99.90;;;;;;5102166;28;20048;-67
2022/01/04 10:32:56;;;;;;;4.85;1.08;;;5.30;99.90;;;;;;5120755;27;20052;-67
2022/01/04 10:35:26;;;;;;;1.42;0.30;;;5.30;99.90;;;;;;5096737;28;20039;-67
2022/01/04 10:37:53;;;;;;;1.88;0.30;;;5.30;99.90;;;;;;5071464;28;20044;-67
2022/01/04 10:40:19;;;;;;;5.70;0.95;;;5.30;99.90;;;;;;5070780;28;20047;-67
2022/01/04 10:42:46;;;;;;;3.13;0.40;;;5.30;99.90;;;;;;5074002;28;20032;-67
2022/01/04 10:45:29;;;;;;;3.75;0.70;;;5.20;99.90;;;;;;5094328;28;20136;-67
2022/01/04 10:48:07;;;;;;;1.25;0.45;;;5.20;99.90;;;;;;5109635;28;20879;-67
2022/01/04 10:50:35;;;;;;;7.65;1.02;;;5.20;99.90;;;;;;5080115;28;20044;-67
2022/01/04 10:53:02;;;;;;;4.57;0.90;;;5.30;99.90;;;;;;5087859;28;20117;-67
2022/01/04 10:55:33;;;;;;;2.65;1.05;;;5.30;99.90;;;;;;5078052;28;20080;-67
2022/01/04 10:57:59;;;;;;;5.70;1.35;;;5.30;99.90;;;;;;5077627;28;20044;-67
2022/01/04 11:00:25;;;;;;;3.70;0.90;;;5.30;99.90;;;;;;5090941;28;20083;-67
2022/01/04 11:28:14;;;;;;;4.10;0.90;;;5.10;99.90;;;;;;5101815;27;20129;-67
2022/01/04 11:31:06;;;;;;;1.88;0.32;;;5.00;99.90;;;;;;5087520;28;20040;-67
2022/01/04 11:33:56;;;;;;;2.58;0.68;;;4.80;99.90;;;;;;5088471;28;20094;-68
2022/01/04 11:36:24;;;;;;;3.75;0.82;;;4.70;99.90;;;;;;5087426;28;20048;-66
2022/01/04 11:38:49;;;;;;;4.40;0.85;;;4.70;99.90;;;;;;5069412;28;20047;-68
2022/01/04 11:41:32;;;;;;;2.85;0.68;;;4.60;99.90;;;;;;5088025;28;20060;-68
2022/01/04 11:44:16;;;;;;;4.85;0.93;;;4.70;99.90;;;;;;5057712;28;20052;-68
2022/01/04 11:46:42;;;;;;;4.13;0.70;;;4.70;99.90;;;;;;5048777;28;20061;-67
2022/01/04 11:49:13;;;;;;;3.60;1.00;;;4.70;99.90;;;;;;5049197;28;20068;-67
2022/01/04 11:51:43;;;;;;;3.73;0.97;;;4.80;99.90;;;;;;5049662;28;20136;-67
2022/01/04 11:54:18;;;;;;;4.10;0.70;;;4.80;99.90;;;;;;5053151;28;20048;-68
2022/01/04 11:56:48;;;;;;;4.57;0.80;;;4.90;99.90;;;;;;5087203;28;20052;-68
2022/01/04 11:59:31;;;;;;;3.50;0.50;;;4.90;99.90;;;;;;5086184;28;20044;-68
2022/01/04 12:01:56;;;;;;;;;;;4.90;99.90;;;;;;5068200;28;20056;-68
2022/01/04 12:04:56;;;;;;;6.20;1.15;;;4.90;99.90;;;;;;5051756;28;19920;-68
2022/01/04 12:07:46;;;;;;;5.75;1.13;;;5.00;99.90;;;;;;5048848;28;20053;-68
2022/01/04 12:10:18;;;;;;;5.72;0.98;;;5.10;99.90;;;;;;5068914;28;20563;-68
2022/01/04 12:13:14;;;;;;;4.47;1.17;;;5.20;99.90;;;;;;5069294;28;20044;-67
2022/01/04 12:15:51;;;;;;;2.38;0.77;;;5.20;99.90;;;;;;5069211;28;20056;-68
2022/01/04 12:18:22;;;;;;;5.95;1.63;;;5.20;99.90;;;;;;5068731;28;20053;-67
2022/01/04 12:20:50;;;;;;;2.53;0.80;;;5.30;99.90;;;;;;5086534;28;20048;-68
2022/01/04 12:23:35;;;;;;;8.80;0.88;;;5.30;99.90;;;;;;5068214;28;20294;-67
2022/01/04 12:26:14;;;;;;;3.03;0.73;;;5.30;99.90;;;;;;5068273;28;20186;-67
2022/01/04 12:28:46;;;;;;;5.63;1.40;;;5.30;99.90;;;;;;5074051;28;20055;-68
2022/01/04 12:31:20;;;;;;;8.55;1.23;;;5.30;99.90;;;;;;5070888;28;20044;-68
2022/01/04 12:33:53;;;;;;;6.13;0.90;;;5.30;99.90;;;;;;5071900;28;20082;-68
2022/01/04 12:36:38;;;;;;;4.32;1.55;;;5.30;99.90;;;;;;5070759;28;20052;-68
2022/01/04 12:39:05;;;;;;;5.88;1.15;;;5.40;99.90;;;;;;5059716;28;20405;-68
2022/01/04 12:41:32;;;;;;;4.20;1.20;;;5.40;99.90;;;;;;5071387;28;20044;-68
2022/01/04 12:43:58;;;;;;;4.95;0.82;;;5.40;99.90;;;;;;5072282;28;20048;-68
2022/01/04 12:46:28;;;;;;;8.88;1.17;;;5.50;99.90;;;;;;5073402;28;20064;-68
2022/01/04 12:49:15;;;;;;;4.65;1.20;;;5.50;99.90;;;;;;5071483;28;20060;-68
2022/01/04 12:51:44;;;;;;;4.95;0.88;;;5.50;99.90;;;;;;5051948;28;20426;-68
2022/01/04 12:54:12;;;;;;;14.55;1.55;;;5.50;99.90;;;;;;5051964;28;20057;-68
2022/01/04 12:56:43;;;;;;;3.13;1.10;;;5.50;99.90;;;;;;5051090;28;20048;-68
2022/01/04 12:59:17;;;;;;;4.43;0.93;;;5.50;99.90;;;;;;5051883;28;20514;-68
2022/01/04 13:01:48;;;;;;;1.00;0.57;;;5.60;99.90;;;;;;5053294;28;20403;-67
2022/01/04 13:04:21;;;;;;;7.07;1.23;;;5.60;99.90;;;;;;5051365;28;20056;-69
2022/01/04 13:06:48;;;;;;;2.38;0.60;;;5.60;99.90;;;;;;5069327;28;20454;-68
2022/01/04 13:09:18;;;;;;;7.72;1.40;;;5.60;99.90;;;;;;5072079;28;20056;-69
2022/01/04 13:11:52;;;;;;;8.45;1.45;;;5.50;99.90;;;;;;5072054;28;20489;-69
2022/01/04 13:14:23;;;;;;;7.28;1.08;;;5.60;99.90;;;;;;5071469;28;20093;-68
2022/01/04 13:16:49;;;;;;;8.63;1.33;;;5.60;99.90;;;;;;5065733;28;20059;-69
2022/01/04 13:19:18;;;;;;;10.73;0.93;;;5.60;99.90;;;;;;5071246;28;20048;-68
2022/01/04 13:22:07;;;;;;;5.70;1.00;;;5.60;99.90;;;;;;5069462;28;20282;-68
2022/01/04 13:24:44;;;;;;;2.58;0.93;;;5.60;99.90;;;;;;5057516;28;20079;-68
2022/01/04 13:27:26;;;;;;;2.72;0.80;;;5.60;99.90;;;;;;5069755;28;20079;-69
2022/01/04 13:30:04;;;;;;;6.77;1.17;;;5.70;99.90;;;;;;5069133;28;20061;-68